This is the latest recevied weather packets stored in our database for station/object OK0EK-11. If no packets are shown the sender has not sent any weather packets the latest 10 day(s).
| Time | Temp. | Humidity | Pressure | Rain* | Wind** | Luminosity | Snow |
|---|---|---|---|---|---|---|---|
| 1787730190 | 14.44° C | 65% | 1019.7 hPa | - | - | - | - |
| 1787729590 | 14.44° C | 64% | 1019.7 hPa | - | - | - | - |
| 1787728990 | 14.44° C | 65% | 1019.6 hPa | - | - | - | - |
| 1787728390 | 14.44° C | 64% | 1019.5 hPa | - | - | - | - |
| 1787727791 | 14.44° C | 64% | 1019.4 hPa | - | - | - | - |
| 1787727191 | 14.44° C | 63% | 1019.3 hPa | - | - | - | - |
| 1787726591 | 14.44° C | 62% | 1019.3 hPa | - | - | - | - |
| 1787725991 | 15° C | 62% | 1019.3 hPa | - | - | - | - |
| 1787725392 | 15° C | 63% | 1019.2 hPa | - | - | - | - |
| 1787724792 | 14.44° C | 62% | 1019.2 hPa | - | - | - | - |
| 1787724192 | 14.44° C | 64% | 1019 hPa | - | - | - | - |
| 1787723592 | 14.44° C | 63% | 1019.1 hPa | - | - | - | - |
| 1787722993 | 14.44° C | 64% | 1019.2 hPa | - | - | - | - |
| 1787722583 | 13.33° C | 69% | 1019.1 hPa | - | - | - | - |
| 1787722393 | 13.33° C | 69% | 1019.1 hPa | - | - | - | - |
| 1787721792 | 13.33° C | 70% | 1019 hPa | - | - | - | - |
| 1787721192 | 12.78° C | 74% | 1018.8 hPa | - | - | - | - |
| 1787720593 | 12.78° C | 73% | 1018.8 hPa | - | - | - | - |
| 1787719993 | 13.33° C | 69% | 1018.8 hPa | - | - | - | - |
| 1787719393 | 13.33° C | 70% | 1018.7 hPa | - | - | - | - |
| 1787718793 | 12.78° C | 72% | 1018.8 hPa | - | - | - | - |
| 1787718194 | 12.78° C | 75% | 1018.8 hPa | - | - | - | - |
| 1787717594 | 12.78° C | 74% | 1018.6 hPa | - | - | - | - |
| 1787716994 | 12.78° C | 74% | 1018.5 hPa | - | - | - | - |
| 1787716394 | 12.78° C | 73% | 1018.6 hPa | - | - | - | - |
* Rain since midnight (hover to see other rain measurements)
** Current wind speed in m/s (hover to see current wind gust speed)